sensor_id;sensor_type;location;lat;lon;timestamp;P1;P2;P0
68698;PMS7003;55680;48.850;2.310;2023-05-10T00:02:01;0.00;0.00;0.00
68698;PMS7003;55680;48.850;2.310;2023-05-10T00:04:26;1.00;0.00;0.00
68698;PMS7003;55680;48.850;2.310;2023-05-10T00:06:52;0.00;0.00;0.00
68698;PMS7003;55680;48.850;2.310;2023-05-10T00:09:18;0.00;0.00;0.00
68698;PMS7003;55680;48.850;2.310;2023-05-10T00:11:44;0.00;0.00;0.00
68698;PMS7003;55680;48.850;2.310;2023-05-10T00:14:09;0.00;0.00;0.00
68698;PMS7003;55680;48.850;2.310;2023-05-10T00:16:34;0.00;0.00;0.00
68698;PMS7003;55680;48.850;2.310;2023-05-10T00:19:00;1.00;0.00;0.00
68698;PMS7003;55680;48.850;2.310;2023-05-10T00:21:25;0.00;0.00;0.00
68698;PMS7003;55680;48.850;2.310;2023-05-10T00:23:50;0.00;0.00;0.00
68698;PMS7003;55680;48.850;2.310;2023-05-10T00:26:16;0.00;0.00;0.00
68698;PMS7003;55680;48.850;2.310;2023-05-10T00:28:41;0.00;0.00;0.00
68698;PMS7003;55680;48.850;2.310;2023-05-10T00:31:07;0.00;0.00;0.00
68698;PMS7003;55680;48.850;2.310;2023-05-10T00:33:32;0.00;0.00;0.00
68698;PMS7003;55680;48.850;2.310;2023-05-10T00:35:57;0.00;0.00;0.00
68698;PMS7003;55680;48.850;2.310;2023-05-10T00:38:23;0.00;0.00;0.00
68698;PMS7003;55680;48.850;2.310;2023-05-10T00:40:48;0.00;0.00;0.00
68698;PMS7003;55680;48.850;2.310;2023-05-10T00:43:14;0.00;0.00;0.00
68698;PMS7003;55680;48.850;2.310;2023-05-10T00:45:39;0.00;0.00;0.00
68698;PMS7003;55680;48.850;2.310;2023-05-10T00:48:05;0.00;0.00;0.00
68698;PMS7003;55680;48.850;2.310;2023-05-10T00:50:31;0.00;0.00;0.00
68698;PMS7003;55680;48.850;2.310;2023-05-10T00:52:57;0.00;0.00;0.00
68698;PMS7003;55680;48.850;2.310;2023-05-10T00:55:24;0.00;0.00;0.00
68698;PMS7003;55680;48.850;2.310;2023-05-10T00:57:49;0.00;0.00;0.00
68698;PMS7003;55680;48.850;2.310;2023-05-10T01:00:15;0.00;0.00;0.00
68698;PMS7003;55680;48.850;2.310;2023-05-10T01:02:46;4.00;0.00;0.00
68698;PMS7003;55680;48.850;2.310;2023-05-10T01:05:12;0.00;0.00;0.00
68698;PMS7003;55680;48.850;2.310;2023-05-10T01:07:38;0.00;0.00;0.00
68698;PMS7003;55680;48.850;2.310;2023-05-10T01:10:04;1.00;0.00;0.00
68698;PMS7003;55680;48.850;2.310;2023-05-10T01:12:30;0.00;0.00;0.00
68698;PMS7003;55680;48.850;2.310;2023-05-10T01:14:56;0.00;0.00;0.00
68698;PMS7003;55680;48.850;2.310;2023-05-10T01:17:22;0.00;0.00;0.00
68698;PMS7003;55680;48.850;2.310;2023-05-10T01:19:48;0.00;0.00;0.00
68698;PMS7003;55680;48.850;2.310;2023-05-10T01:30:35;0.00;0.00;0.00
68698;PMS7003;55680;48.850;2.310;2023-05-10T01:36:31;0.00;0.00;0.00
68698;PMS7003;55680;48.850;2.310;2023-05-10T01:44:15;0.00;0.00;0.00
68698;PMS7003;55680;48.850;2.310;2023-05-10T01:46:43;0.00;0.00;0.00
68698;PMS7003;55680;48.850;2.310;2023-05-10T01:49:21;0.00;0.00;0.00
68698;PMS7003;55680;48.850;2.310;2023-05-10T01:51:50;0.00;0.00;0.00
68698;PMS7003;55680;48.850;2.310;2023-05-10T01:54:17;0.00;0.00;0.00
68698;PMS7003;55680;48.850;2.310;2023-05-10T01:56:44;0.00;0.00;0.00
68698;PMS7003;55680;48.850;2.310;2023-05-10T01:59:13;0.00;0.00;0.00
68698;PMS7003;55680;48.850;2.310;2023-05-10T02:01:42;0.00;0.00;0.00
68698;PMS7003;55680;48.850;2.310;2023-05-10T02:04:07;0.00;0.00;0.00
68698;PMS7003;55680;48.850;2.310;2023-05-10T02:06:34;0.00;0.00;0.00
68698;PMS7003;55680;48.850;2.310;2023-05-10T02:09:01;0.00;0.00;0.00
68698;PMS7003;55680;48.850;2.310;2023-05-10T02:11:27;0.00;0.00;0.00
68698;PMS7003;55680;48.850;2.310;2023-05-10T02:13:53;0.00;0.00;0.00
68698;PMS7003;55680;48.850;2.310;2023-05-10T02:16:20;0.00;0.00;0.00
68698;PMS7003;55680;48.850;2.310;2023-05-10T02:18:49;0.00;0.00;0.00
68698;PMS7003;55680;48.850;2.310;2023-05-10T02:21:16;0.00;0.00;0.00
68698;PMS7003;55680;48.850;2.310;2023-05-10T02:23:42;0.00;0.00;0.00
68698;PMS7003;55680;48.850;2.310;2023-05-10T02:26:08;0.00;0.00;0.00
68698;PMS7003;55680;48.850;2.310;2023-05-10T02:28:33;0.00;0.00;0.00
68698;PMS7003;55680;48.850;2.310;2023-05-10T02:31:00;0.00;0.00;0.00
68698;PMS7003;55680;48.850;2.310;2023-05-10T02:33:26;0.00;0.00;0.00
68698;PMS7003;55680;48.850;2.310;2023-05-10T02:35:52;0.00;0.00;0.00
68698;PMS7003;55680;48.850;2.310;2023-05-10T02:38:19;0.00;0.00;0.00
68698;PMS7003;55680;48.850;2.310;2023-05-10T02:40:46;0.00;0.00;0.00
68698;PMS7003;55680;48.850;2.310;2023-05-10T02:43:12;0.00;0.00;0.00
68698;PMS7003;55680;48.850;2.310;2023-05-10T02:45:39;0.00;0.00;0.00
68698;PMS7003;55680;48.850;2.310;2023-05-10T02:48:05;0.00;0.00;0.00
68698;PMS7003;55680;48.850;2.310;2023-05-10T02:50:32;0.00;0.00;0.00
68698;PMS7003;55680;48.850;2.310;2023-05-10T02:53:02;0.00;0.00;0.00
68698;PMS7003;55680;48.850;2.310;2023-05-10T02:55:32;0.25;0.00;0.00
68698;PMS7003;55680;48.850;2.310;2023-05-10T02:58:02;0.00;0.00;0.00
68698;PMS7003;55680;48.850;2.310;2023-05-10T03:00:28;0.00;0.00;0.00
68698;PMS7003;55680;48.850;2.310;2023-05-10T03:02:53;0.00;0.00;0.00
68698;PMS7003;55680;48.850;2.310;2023-05-10T03:05:19;0.00;0.00;0.00
68698;PMS7003;55680;48.850;2.310;2023-05-10T03:07:45;0.00;0.00;0.00
68698;PMS7003;55680;48.850;2.310;2023-05-10T03:10:10;0.00;0.00;0.00
68698;PMS7003;55680;48.850;2.310;2023-05-10T03:12:42;0.00;0.00;0.00
68698;PMS7003;55680;48.850;2.310;2023-05-10T03:17:54;0.00;0.00;0.00
68698;PMS7003;55680;48.850;2.310;2023-05-10T03:20:23;0.00;0.00;0.00
68698;PMS7003;55680;48.850;2.310;2023-05-10T03:23:02;0.00;0.00;0.00
68698;PMS7003;55680;48.850;2.310;2023-05-10T03:25:34;0.00;0.00;0.00
68698;PMS7003;55680;48.850;2.310;2023-05-10T03:28:01;0.00;0.00;0.00
68698;PMS7003;55680;48.850;2.310;2023-05-10T03:30:27;0.00;0.00;0.00
68698;PMS7003;55680;48.850;2.310;2023-05-10T03:32:53;0.00;0.00;0.00
68698;PMS7003;55680;48.850;2.310;2023-05-10T03:35:19;0.00;0.00;0.00
68698;PMS7003;55680;48.850;2.310;2023-05-10T03:37:44;0.00;0.00;0.00
68698;PMS7003;55680;48.850;2.310;2023-05-10T03:40:10;0.00;0.00;0.00
68698;PMS7003;55680;48.850;2.310;2023-05-10T03:42:35;0.00;0.00;0.00
68698;PMS7003;55680;48.850;2.310;2023-05-10T03:45:01;0.00;0.00;0.00
68698;PMS7003;55680;48.850;2.310;2023-05-10T03:47:26;0.00;0.00;0.00
68698;PMS7003;55680;48.850;2.310;2023-05-10T03:49:51;0.00;0.00;0.00
68698;PMS7003;55680;48.850;2.310;2023-05-10T03:52:17;0.00;0.00;0.00
68698;PMS7003;55680;48.850;2.310;2023-05-10T03:54:43;0.00;0.00;0.00
68698;PMS7003;55680;48.850;2.310;2023-05-10T03:57:08;1.00;0.00;0.00
68698;PMS7003;55680;48.850;2.310;2023-05-10T03:59:34;0.75;0.00;0.00
68698;PMS7003;55680;48.850;2.310;2023-05-10T04:02:00;0.00;0.00;0.00
68698;PMS7003;55680;48.850;2.310;2023-05-10T04:04:25;0.00;0.00;0.00
68698;PMS7003;55680;48.850;2.310;2023-05-10T04:06:51;0.00;0.00;0.00
68698;PMS7003;55680;48.850;2.310;2023-05-10T04:09:16;0.00;0.00;0.00
68698;PMS7003;55680;48.850;2.310;2023-05-10T04:11:42;0.00;0.00;0.00
68698;PMS7003;55680;48.850;2.310;2023-05-10T04:14:08;0.00;0.00;0.00
68698;PMS7003;55680;48.850;2.310;2023-05-10T04:16:33;0.00;0.00;0.00
68698;PMS7003;55680;48.850;2.310;2023-05-10T04:18:58;0.00;0.00;0.00
68698;PMS7003;55680;48.850;2.310;2023-05-10T04:21:24;0.00;0.00;0.00
68698;PMS7003;55680;48.850;2.310;2023-05-10T04:23:50;0.00;0.00;0.00
68698;PMS7003;55680;48.850;2.310;2023-05-10T04:26:15;0.00;0.00;0.00
68698;PMS7003;55680;48.850;2.310;2023-05-10T04:28:41;0.00;0.00;0.00
68698;PMS7003;55680;48.850;2.310;2023-05-10T04:31:07;0.00;0.00;0.00
68698;PMS7003;55680;48.850;2.310;2023-05-10T04:33:33;0.00;0.00;0.00
68698;PMS7003;55680;48.850;2.310;2023-05-10T04:35:59;0.00;0.00;0.00
68698;PMS7003;55680;48.850;2.310;2023-05-10T04:38:25;0.00;0.00;0.00
68698;PMS7003;55680;48.850;2.310;2023-05-10T04:40:51;0.00;0.00;0.00
68698;PMS7003;55680;48.850;2.310;2023-05-10T04:43:17;0.00;0.00;0.00
68698;PMS7003;55680;48.850;2.310;2023-05-10T04:45:42;0.00;0.00;0.00
68698;PMS7003;55680;48.850;2.310;2023-05-10T04:48:08;0.00;0.00;0.00
68698;PMS7003;55680;48.850;2.310;2023-05-10T04:50:33;0.00;0.00;0.00
68698;PMS7003;55680;48.850;2.310;2023-05-10T04:52:58;0.00;0.00;0.00
68698;PMS7003;55680;48.850;2.310;2023-05-10T04:55:24;0.00;0.00;0.00
68698;PMS7003;55680;48.850;2.310;2023-05-10T04:57:49;0.00;0.00;0.00
68698;PMS7003;55680;48.850;2.310;2023-05-10T05:00:15;0.00;0.00;0.00
68698;PMS7003;55680;48.850;2.310;2023-05-10T05:02:44;0.00;0.00;0.00
68698;PMS7003;55680;48.850;2.310;2023-05-10T05:05:13;0.00;0.00;0.00
68698;PMS7003;55680;48.850;2.310;2023-05-10T05:07:38;0.00;0.00;0.00
68698;PMS7003;55680;48.850;2.310;2023-05-10T05:10:05;0.00;0.00;0.00
68698;PMS7003;55680;48.850;2.310;2023-05-10T05:12:31;0.00;0.00;0.00
68698;PMS7003;55680;48.850;2.310;2023-05-10T05:14:56;0.00;0.00;0.00
68698;PMS7003;55680;48.850;2.310;2023-05-10T05:17:22;0.00;0.00;0.00
68698;PMS7003;55680;48.850;2.310;2023-05-10T05:19:47;0.00;0.00;0.00
68698;PMS7003;55680;48.850;2.310;2023-05-10T05:22:12;0.00;0.00;0.00
68698;PMS7003;55680;48.850;2.310;2023-05-10T05:24:38;0.00;0.00;0.00
68698;PMS7003;55680;48.850;2.310;2023-05-10T05:27:03;0.00;0.00;0.00
68698;PMS7003;55680;48.850;2.310;2023-05-10T05:29:29;0.00;0.00;0.00
68698;PMS7003;55680;48.850;2.310;2023-05-10T05:31:54;0.00;0.00;0.00
68698;PMS7003;55680;48.850;2.310;2023-05-10T05:34:20;0.00;0.00;0.00
68698;PMS7003;55680;48.850;2.310;2023-05-10T05:36:46;0.00;0.00;0.00
68698;PMS7003;55680;48.850;2.310;2023-05-10T05:39:12;0.00;0.00;0.00
68698;PMS7003;55680;48.850;2.310;2023-05-10T05:41:37;0.00;0.00;0.00
68698;PMS7003;55680;48.850;2.310;2023-05-10T05:44:03;0.00;0.00;0.00
68698;PMS7003;55680;48.850;2.310;2023-05-10T05:46:28;0.50;0.00;0.00
68698;PMS7003;55680;48.850;2.310;2023-05-10T05:48:53;0.00;0.00;0.00
68698;PMS7003;55680;48.850;2.310;2023-05-10T05:51:19;0.00;0.00;0.00
68698;PMS7003;55680;48.850;2.310;2023-05-10T05:53:45;0.75;0.00;0.00
68698;PMS7003;55680;48.850;2.310;2023-05-10T05:56:10;0.00;0.00;0.00
68698;PMS7003;55680;48.850;2.310;2023-05-10T05:58:35;1.50;0.00;0.00
68698;PMS7003;55680;48.850;2.310;2023-05-10T06:01:01;0.00;0.00;0.00
68698;PMS7003;55680;48.850;2.310;2023-05-10T06:03:26;0.00;0.00;0.00
68698;PMS7003;55680;48.850;2.310;2023-05-10T06:05:51;0.00;0.00;0.00
68698;PMS7003;55680;48.850;2.310;2023-05-10T06:08:17;0.00;0.00;0.00
68698;PMS7003;55680;48.850;2.310;2023-05-10T06:10:42;0.00;0.00;0.00
68698;PMS7003;55680;48.850;2.310;2023-05-10T06:13:08;1.00;0.00;0.00
68698;PMS7003;55680;48.850;2.310;2023-05-10T06:15:33;0.25;0.00;0.00
68698;PMS7003;55680;48.850;2.310;2023-05-10T06:17:59;0.00;0.00;0.00
68698;PMS7003;55680;48.850;2.310;2023-05-10T06:20:25;0.25;0.00;0.00
68698;PMS7003;55680;48.850;2.310;2023-05-10T06:22:50;1.00;0.00;0.00
68698;PMS7003;55680;48.850;2.310;2023-05-10T06:25:15;0.00;0.00;0.00
68698;PMS7003;55680;48.850;2.310;2023-05-10T06:27:42;0.00;0.00;0.00
68698;PMS7003;55680;48.850;2.310;2023-05-10T06:30:08;0.00;0.00;0.00
68698;PMS7003;55680;48.850;2.310;2023-05-10T06:32:34;0.00;0.00;0.00
68698;PMS7003;55680;48.850;2.310;2023-05-10T06:34:59;0.00;0.00;0.00
68698;PMS7003;55680;48.850;2.310;2023-05-10T06:37:25;0.00;0.00;0.00
68698;PMS7003;55680;48.850;2.310;2023-05-10T06:39:50;0.00;0.00;0.00
68698;PMS7003;55680;48.850;2.310;2023-05-10T06:42:15;0.00;0.00;0.00
68698;PMS7003;55680;48.850;2.310;2023-05-10T06:44:41;0.00;0.00;0.00
68698;PMS7003;55680;48.850;2.310;2023-05-10T06:47:06;0.00;0.00;0.00
68698;PMS7003;55680;48.850;2.310;2023-05-10T06:49:32;0.00;0.00;0.00
68698;PMS7003;55680;48.850;2.310;2023-05-10T06:51:57;0.00;0.00;0.00
68698;PMS7003;55680;48.850;2.310;2023-05-10T06:54:22;0.00;0.00;0.00
68698;PMS7003;55680;48.850;2.310;2023-05-10T06:56:48;1.00;0.00;0.00
68698;PMS7003;55680;48.850;2.310;2023-05-10T06:59:13;0.00;0.00;0.00
68698;PMS7003;55680;48.850;2.310;2023-05-10T07:01:40;0.00;0.00;0.00
68698;PMS7003;55680;48.850;2.310;2023-05-10T07:04:05;0.00;0.00;0.00
68698;PMS7003;55680;48.850;2.310;2023-05-10T07:06:32;0.00;0.00;0.00
68698;PMS7003;55680;48.850;2.310;2023-05-10T07:08:58;1.00;1.00;0.75
68698;PMS7003;55680;48.850;2.310;2023-05-10T07:11:23;0.00;0.00;0.00
68698;PMS7003;55680;48.850;2.310;2023-05-10T07:13:49;0.00;0.00;0.00
68698;PMS7003;55680;48.850;2.310;2023-05-10T07:16:14;0.00;0.00;0.00
68698;PMS7003;55680;48.850;2.310;2023-05-10T07:18:40;1.00;0.00;0.00
68698;PMS7003;55680;48.850;2.310;2023-05-10T07:21:05;0.00;0.00;0.00
68698;PMS7003;55680;48.850;2.310;2023-05-10T07:23:30;0.75;0.00;0.00
68698;PMS7003;55680;48.850;2.310;2023-05-10T07:25:56;0.00;0.00;0.00
68698;PMS7003;55680;48.850;2.310;2023-05-10T07:28:22;0.00;0.00;0.00
68698;PMS7003;55680;48.850;2.310;2023-05-10T07:30:48;0.25;0.00;0.00
68698;PMS7003;55680;48.850;2.310;2023-05-10T07:33:13;0.00;0.00;0.00
68698;PMS7003;55680;48.850;2.310;2023-05-10T07:35:39;0.00;0.00;0.00
68698;PMS7003;55680;48.850;2.310;2023-05-10T07:38:05;0.00;0.00;0.00
68698;PMS7003;55680;48.850;2.310;2023-05-10T07:40:30;0.25;0.00;0.00
68698;PMS7003;55680;48.850;2.310;2023-05-10T07:42:56;0.00;0.00;0.00
68698;PMS7003;55680;48.850;2.310;2023-05-10T07:45:22;0.00;0.00;0.00
68698;PMS7003;55680;48.850;2.310;2023-05-10T07:47:48;0.25;0.00;0.00
68698;PMS7003;55680;48.850;2.310;2023-05-10T07:50:13;0.00;0.00;0.00
68698;PMS7003;55680;48.850;2.310;2023-05-10T07:52:39;0.00;0.00;0.00
68698;PMS7003;55680;48.850;2.310;2023-05-10T07:55:04;0.00;0.00;0.00
68698;PMS7003;55680;48.850;2.310;2023-05-10T07:57:30;0.75;0.00;0.00
68698;PMS7003;55680;48.850;2.310;2023-05-10T07:59:56;0.00;0.00;0.00
68698;PMS7003;55680;48.850;2.310;2023-05-10T08:02:21;0.00;0.00;0.00
68698;PMS7003;55680;48.850;2.310;2023-05-10T08:04:46;0.00;0.00;0.00
68698;PMS7003;55680;48.850;2.310;2023-05-10T08:07:12;0.00;0.00;0.00
68698;PMS7003;55680;48.850;2.310;2023-05-10T08:09:37;0.00;0.00;0.00
68698;PMS7003;55680;48.850;2.310;2023-05-10T08:12:02;0.00;0.00;0.00
68698;PMS7003;55680;48.850;2.310;2023-05-10T08:14:28;0.00;0.00;0.00
68698;PMS7003;55680;48.850;2.310;2023-05-10T08:16:54;1.00;0.00;0.00
68698;PMS7003;55680;48.850;2.310;2023-05-10T08:19:19;0.00;0.00;0.00
68698;PMS7003;55680;48.850;2.310;2023-05-10T08:21:46;0.00;0.00;0.00
68698;PMS7003;55680;48.850;2.310;2023-05-10T08:24:11;1.00;0.00;0.00
68698;PMS7003;55680;48.850;2.310;2023-05-10T08:26:37;0.00;0.00;0.00
68698;PMS7003;55680;48.850;2.310;2023-05-10T08:29:02;1.50;1.50;0.00
68698;PMS7003;55680;48.850;2.310;2023-05-10T08:31:28;0.75;0.75;0.00
68698;PMS7003;55680;48.850;2.310;2023-05-10T08:33:53;0.00;0.00;0.00
68698;PMS7003;55680;48.850;2.310;2023-05-10T08:36:18;0.00;0.00;0.00
68698;PMS7003;55680;48.850;2.310;2023-05-10T08:38:50;0.50;0.50;0.00
68698;PMS7003;55680;48.850;2.310;2023-05-10T08:41:15;0.00;0.00;0.00
68698;PMS7003;55680;48.850;2.310;2023-05-10T08:43:41;0.00;0.00;0.00
68698;PMS7003;55680;48.850;2.310;2023-05-10T08:46:11;0.25;0.00;0.00
68698;PMS7003;55680;48.850;2.310;2023-05-10T08:48:43;1.50;0.25;0.00
68698;PMS7003;55680;48.850;2.310;2023-05-10T08:51:09;4.00;0.00;0.00
68698;PMS7003;55680;48.850;2.310;2023-05-10T08:53:38;0.00;0.00;0.00
68698;PMS7003;55680;48.850;2.310;2023-05-10T08:56:04;1.00;1.00;0.00
68698;PMS7003;55680;48.850;2.310;2023-05-10T08:58:30;1.00;1.00;0.00
68698;PMS7003;55680;48.850;2.310;2023-05-10T09:00:55;3.00;1.00;0.00
68698;PMS7003;55680;48.850;2.310;2023-05-10T09:03:22;0.00;0.00;0.00
68698;PMS7003;55680;48.850;2.310;2023-05-10T09:05:48;1.00;0.00;0.00
68698;PMS7003;55680;48.850;2.310;2023-05-10T09:08:14;2.75;1.00;1.00
68698;PMS7003;55680;48.850;2.310;2023-05-10T09:10:41;1.75;0.75;0.75
68698;PMS7003;55680;48.850;2.310;2023-05-10T09:13:08;4.00;0.00;0.00
68698;PMS7003;55680;48.850;2.310;2023-05-10T09:15:35;0.50;0.50;0.25
68698;PMS7003;55680;48.850;2.310;2023-05-10T09:18:01;2.75;2.75;2.00
68698;PMS7003;55680;48.850;2.310;2023-05-10T09:20:34;3.25;2.25;1.50
68698;PMS7003;55680;48.850;2.310;2023-05-10T09:22:59;1.25;1.25;1.25
68698;PMS7003;55680;48.850;2.310;2023-05-10T09:25:25;5.50;2.50;2.00
68698;PMS7003;55680;48.850;2.310;2023-05-10T09:27:52;7.25;2.75;1.75
68698;PMS7003;55680;48.850;2.310;2023-05-10T09:30:26;2.25;1.50;1.50
68698;PMS7003;55680;48.850;2.310;2023-05-10T09:32:52;1.50;1.50;1.00
68698;PMS7003;55680;48.850;2.310;2023-05-10T09:35:22;5.75;4.00;2.00
68698;PMS7003;55680;48.850;2.310;2023-05-10T09:37:49;4.00;3.00;2.00
68698;PMS7003;55680;48.850;2.310;2023-05-10T09:40:17;3.25;2.25;1.00
68698;PMS7003;55680;48.850;2.310;2023-05-10T09:42:54;3.25;2.00;1.75
68698;PMS7003;55680;48.850;2.310;2023-05-10T09:45:22;4.00;3.00;1.00
68698;PMS7003;55680;48.850;2.310;2023-05-10T09:47:48;1.75;1.50;1.00
68698;PMS7003;55680;48.850;2.310;2023-05-10T09:50:14;1.00;1.00;1.00
68698;PMS7003;55680;48.850;2.310;2023-05-10T09:52:46;2.00;2.00;1.75
68698;PMS7003;55680;48.850;2.310;2023-05-10T09:55:22;4.00;3.00;2.00
68698;PMS7003;55680;48.850;2.310;2023-05-10T09:57:50;1.50;1.50;1.00
68698;PMS7003;55680;48.850;2.310;2023-05-10T10:00:23;5.00;3.00;1.00
68698;PMS7003;55680;48.850;2.310;2023-05-10T10:02:56;2.00;2.00;1.50
68698;PMS7003;55680;48.850;2.310;2023-05-10T10:05:28;4.25;3.00;2.00
68698;PMS7003;55680;48.850;2.310;2023-05-10T10:07:57;4.25;2.75;1.00
68698;PMS7003;55680;48.850;2.310;2023-05-10T10:10:23;4.00;1.75;1.50
68698;PMS7003;55680;48.850;2.310;2023-05-10T10:12:49;1.00;0.25;0.00
68698;PMS7003;55680;48.850;2.310;2023-05-10T10:15:15;0.25;0.25;0.00
68698;PMS7003;55680;48.850;2.310;2023-05-10T10:17:40;0.00;0.00;0.00
68698;PMS7003;55680;48.850;2.310;2023-05-10T10:20:07;2.75;2.50;1.50
68698;PMS7003;55680;48.850;2.310;2023-05-10T10:22:33;1.00;1.00;0.75
68698;PMS7003;55680;48.850;2.310;2023-05-10T10:24:58;1.50;1.25;0.00
68698;PMS7003;55680;48.850;2.310;2023-05-10T10:27:27;5.00;4.00;2.00
68698;PMS7003;55680;48.850;2.310;2023-05-10T10:30:01;2.75;2.75;1.50
68698;PMS7003;55680;48.850;2.310;2023-05-10T10:35:28;2.00;2.00;1.00
68698;PMS7003;55680;48.850;2.310;2023-05-10T10:37:54;3.75;1.00;0.25
68698;PMS7003;55680;48.850;2.310;2023-05-10T10:40:23;3.25;2.00;2.00
68698;PMS7003;55680;48.850;2.310;2023-05-10T10:42:53;4.00;4.00;3.00
68698;PMS7003;55680;48.850;2.310;2023-05-10T10:45:19;6.00;4.75;2.50
68698;PMS7003;55680;48.850;2.310;2023-05-10T10:47:45;1.00;1.00;0.00
68698;PMS7003;55680;48.850;2.310;2023-05-10T10:50:11;3.00;3.00;2.50
68698;PMS7003;55680;48.850;2.310;2023-05-10T10:52:44;1.00;1.00;0.50
68698;PMS7003;55680;48.850;2.310;2023-05-10T11:00:20;3.75;3.75;2.00
68698;PMS7003;55680;48.850;2.310;2023-05-10T11:08:06;4.75;3.50;1.75
68698;PMS7003;55680;48.850;2.310;2023-05-10T11:10:32;3.00;3.00;2.00
68698;PMS7003;55680;48.850;2.310;2023-05-10T11:13:09;2.50;2.50;1.50
68698;PMS7003;55680;48.850;2.310;2023-05-10T11:15:38;2.00;2.00;1.50
68698;PMS7003;55680;48.850;2.310;2023-05-10T11:18:20;3.25;2.25;2.00
68698;PMS7003;55680;48.850;2.310;2023-05-10T11:20:52;4.25;4.25;2.00
68698;PMS7003;55680;48.850;2.310;2023-05-10T11:23:52;3.50;1.75;1.75
68698;PMS7003;55680;48.850;2.310;2023-05-10T11:26:22;1.00;1.00;0.75
68698;PMS7003;55680;48.850;2.310;2023-05-10T11:28:55;4.75;4.25;2.00
68698;PMS7003;55680;48.850;2.310;2023-05-10T11:31:21;3.25;2.75;2.00
68698;PMS7003;55680;48.850;2.310;2023-05-10T11:33:48;3.75;3.50;2.75
68698;PMS7003;55680;48.850;2.310;2023-05-10T11:36:15;4.25;2.75;2.00
68698;PMS7003;55680;48.850;2.310;2023-05-10T11:38:42;2.75;2.00;1.00
68698;PMS7003;55680;48.850;2.310;2023-05-10T11:41:08;6.50;3.75;2.00
68698;PMS7003;55680;48.850;2.310;2023-05-10T11:43:35;4.50;2.75;1.75
68698;PMS7003;55680;48.850;2.310;2023-05-10T11:46:03;2.75;1.75;1.00
68698;PMS7003;55680;48.850;2.310;2023-05-10T11:48:29;3.00;2.00;1.25
68698;PMS7003;55680;48.850;2.310;2023-05-10T11:50:55;2.75;1.75;1.00
68698;PMS7003;55680;48.850;2.310;2023-05-10T11:53:22;3.25;2.25;1.50
68698;PMS7003;55680;48.850;2.310;2023-05-10T11:55:47;2.75;2.75;1.50
68698;PMS7003;55680;48.850;2.310;2023-05-10T11:58:12;3.25;2.00;2.00
68698;PMS7003;55680;48.850;2.310;2023-05-10T12:00:38;3.50;3.50;2.00
68698;PMS7003;55680;48.850;2.310;2023-05-10T12:03:03;3.50;3.50;2.25
68698;PMS7003;55680;48.850;2.310;2023-05-10T12:05:31;4.00;4.00;2.00
68698;PMS7003;55680;48.850;2.310;2023-05-10T12:08:10;1.50;1.50;1.00
68698;PMS7003;55680;48.850;2.310;2023-05-10T12:10:39;2.50;2.50;1.50
68698;PMS7003;55680;48.850;2.310;2023-05-10T12:13:04;2.75;2.25;1.50
68698;PMS7003;55680;48.850;2.310;2023-05-10T12:15:30;3.50;2.00;1.75
68698;PMS7003;55680;48.850;2.310;2023-05-10T12:17:55;4.25;1.75;1.00
68698;PMS7003;55680;48.850;2.310;2023-05-10T12:20:22;6.00;3.25;2.00
68698;PMS7003;55680;48.850;2.310;2023-05-10T12:22:49;3.50;2.00;1.50
68698;PMS7003;55680;48.850;2.310;2023-05-10T12:25:15;2.50;1.25;1.00
68698;PMS7003;55680;48.850;2.310;2023-05-10T12:27:47;3.00;3.00;2.25
68698;PMS7003;55680;48.850;2.310;2023-05-10T12:30:20;4.50;3.75;1.75
68698;PMS7003;55680;48.850;2.310;2023-05-10T12:32:47;3.50;3.50;1.75
68698;PMS7003;55680;48.850;2.310;2023-05-10T12:35:12;2.00;2.00;1.50
68698;PMS7003;55680;48.850;2.310;2023-05-10T12:37:37;1.75;1.25;1.00
68698;PMS7003;55680;48.850;2.310;2023-05-10T12:40:06;3.75;2.25;1.00
68698;PMS7003;55680;48.850;2.310;2023-05-10T12:42:33;2.75;1.50;1.00
68698;PMS7003;55680;48.850;2.310;2023-05-10T12:44:59;2.00;2.00;1.50
68698;PMS7003;55680;48.850;2.310;2023-05-10T12:47:25;1.00;0.75;0.75
68698;PMS7003;55680;48.850;2.310;2023-05-10T12:49:50;2.75;2.00;2.00
68698;PMS7003;55680;48.850;2.310;2023-05-10T12:52:16;2.75;2.25;0.75
68698;PMS7003;55680;48.850;2.310;2023-05-10T12:54:41;4.25;3.00;2.00
68698;PMS7003;55680;48.850;2.310;2023-05-10T12:57:07;2.00;1.75;0.75
68698;PMS7003;55680;48.850;2.310;2023-05-10T12:59:32;4.25;2.75;2.25
68698;PMS7003;55680;48.850;2.310;2023-05-10T13:01:57;2.50;2.00;1.00
68698;PMS7003;55680;48.850;2.310;2023-05-10T13:04:23;1.75;1.75;0.75
68698;PMS7003;55680;48.850;2.310;2023-05-10T13:06:48;1.50;1.50;1.50
68698;PMS7003;55680;48.850;2.310;2023-05-10T13:09:14;1.75;1.75;1.75
68698;PMS7003;55680;48.850;2.310;2023-05-10T13:11:40;0.50;0.50;0.50
68698;PMS7003;55680;48.850;2.310;2023-05-10T13:14:05;1.50;1.50;0.50
68698;PMS7003;55680;48.850;2.310;2023-05-10T13:16:31;3.50;2.50;1.50
68698;PMS7003;55680;48.850;2.310;2023-05-10T13:18:56;3.00;3.00;1.75
68698;PMS7003;55680;48.850;2.310;2023-05-10T13:21:21;2.25;2.00;1.50
68698;PMS7003;55680;48.850;2.310;2023-05-10T13:23:49;2.25;1.75;1.75
68698;PMS7003;55680;48.850;2.310;2023-05-10T13:26:14;3.00;1.00;1.00
68698;PMS7003;55680;48.850;2.310;2023-05-10T13:28:39;2.25;2.25;2.00
68698;PMS7003;55680;48.850;2.310;2023-05-10T13:31:05;2.25;1.50;1.00
68698;PMS7003;55680;48.850;2.310;2023-05-10T13:33:30;2.75;1.50;1.50
68698;PMS7003;55680;48.850;2.310;2023-05-10T13:35:56;3.00;3.00;2.50
68698;PMS7003;55680;48.850;2.310;2023-05-10T13:38:21;6.00;4.00;3.00
68698;PMS7003;55680;48.850;2.310;2023-05-10T13:40:47;2.50;2.50;2.00
68698;PMS7003;55680;48.850;2.310;2023-05-10T13:43:12;3.00;3.00;1.75
68698;PMS7003;55680;48.850;2.310;2023-05-10T13:45:37;3.25;3.25;2.25
68698;PMS7003;55680;48.850;2.310;2023-05-10T13:48:03;3.00;3.00;1.50
68698;PMS7003;55680;48.850;2.310;2023-05-10T13:50:29;3.00;3.00;2.00
68698;PMS7003;55680;48.850;2.310;2023-05-10T13:52:54;1.25;1.25;0.75
68698;PMS7003;55680;48.850;2.310;2023-05-10T13:55:20;2.00;0.25;0.00
68698;PMS7003;55680;48.850;2.310;2023-05-10T13:57:45;3.25;2.50;2.00
68698;PMS7003;55680;48.850;2.310;2023-05-10T14:00:11;3.25;2.75;2.00
68698;PMS7003;55680;48.850;2.310;2023-05-10T14:02:37;2.25;2.25;1.50
68698;PMS7003;55680;48.850;2.310;2023-05-10T14:05:02;2.00;1.75;0.75
68698;PMS7003;55680;48.850;2.310;2023-05-10T14:07:28;3.25;3.25;2.50
68698;PMS7003;55680;48.850;2.310;2023-05-10T14:09:53;4.50;2.50;1.00
68698;PMS7003;55680;48.850;2.310;2023-05-10T14:12:19;3.75;2.75;2.00
68698;PMS7003;55680;48.850;2.310;2023-05-10T14:14:44;2.50;2.50;1.50
68698;PMS7003;55680;48.850;2.310;2023-05-10T14:17:10;1.50;1.50;1.50
68698;PMS7003;55680;48.850;2.310;2023-05-10T14:19:35;1.25;1.25;1.00
68698;PMS7003;55680;48.850;2.310;2023-05-10T14:22:00;1.50;1.50;1.00
68698;PMS7003;55680;48.850;2.310;2023-05-10T14:24:26;0.75;0.75;0.75
68698;PMS7003;55680;48.850;2.310;2023-05-10T14:26:51;3.00;2.00;1.00
68698;PMS7003;55680;48.850;2.310;2023-05-10T14:29:19;1.00;1.00;0.75
68698;PMS7003;55680;48.850;2.310;2023-05-10T14:31:45;2.00;1.00;0.00
68698;PMS7003;55680;48.850;2.310;2023-05-10T14:34:10;1.25;0.75;0.50
68698;PMS7003;55680;48.850;2.310;2023-05-10T14:36:35;1.75;1.75;1.00
68698;PMS7003;55680;48.850;2.310;2023-05-10T14:39:01;0.50;0.50;0.00
68698;PMS7003;55680;48.850;2.310;2023-05-10T14:41:26;1.25;1.00;0.00
68698;PMS7003;55680;48.850;2.310;2023-05-10T14:43:52;2.00;0.50;0.25
68698;PMS7003;55680;48.850;2.310;2023-05-10T14:46:18;1.00;1.00;1.00
68698;PMS7003;55680;48.850;2.310;2023-05-10T14:48:43;0.75;0.00;0.00
68698;PMS7003;55680;48.850;2.310;2023-05-10T14:51:09;0.75;0.50;0.00
68698;PMS7003;55680;48.850;2.310;2023-05-10T14:53:34;2.75;1.00;0.25